LOWI/INN METAR and TAF weather

Enter ICAO airport designator
Station Type Date Time Source
LOWI METAR 2019/06/19 00:50 UTC NOAA

LOWI 190050Z AUTO 22003KT 200V280 9999 FEW006 BKN180 16/15 Q1018


Station Type Date Time Source
LOWI Decoded METAR 2019/06/19 00:50 UTC NOAA

Innsbruck-Flughafen, Austria (LOWI) 47-16N 011-21E 593M
Jun 18, 2019 - 08:50 PM EDT / 2019.06.19 0050 UTC
Wind: from the SW (220 degrees) at 3 MPH (3 KT) (direction variable):0
Visibility: greater than 7 mile(s):0
Sky conditions: mostly cloudy
Temperature: 60 F (16 C)
Dew Point: 59 F (15 C)
Relative Humidity: 93%
Pressure (altimeter): 30.06 in. Hg (1018 hPa)
ob: LOWI 190050Z AUTO 22003KT 200V280 9999 FEW006 BKN180 16/15 Q1018
cycle: 1

Station Type Date Time Source
LOWI TAF 2019/06/18 20:57 UTC NOAA

TAF TAF
AMD LOWI 182050Z 1820/1918 09012KT 9999 FEW060TCU SCT080 TX28/1913Z TN15/1904Z
TEMPO 1820/1822 28015G30KT -TSRA FEW060CB BKN070
BECMG 1820/1822 27003KT PROB30
TEMPO 1900/1907 27015G25KT TSRA SCT030CB BKN060
BECMG 1908/1910 09007KT PROB30
TEMPO 1912/1918 28015G30KT -TSRA FEW060CB BKN080

Example: see airport list